Hope, KY (40334)

2:01 PM EST on February 14, 2016 (GMT -0500)
Oak Ridge Estates | | Change Station
CLOSE
Current Station
Personal Weather Station
Location: Stanton, KY
Elevation: 846 ft
Nearby Weather Stations
Active Advisory: Winter Weather Advisory Active Notice: Record Report

Elev 846 ft 37.83 °N, 83.86 °W | Updated 5 minutes ago

Overcast
Overcast
22.3 °F
Feels Like 22 °F
N
1.1
Wind Variable Wind from SW

Today
High -- | Low -- °F
--% Chance of Precip.
Yesterday
High -- | Low -- °F
Precip. -- in
Pressure 30.26 in
Visibility 10.0 miles
Clouds Mostly Cloudy 4600 ft
Overcast 6000 ft
Windchill 22 °F
Dew Point 11 °F
Humidity 62%
Rainfall 0.00 in
Snow Depth Not available.
7:27 AM 6:12 PM
Waxing Crescent, 44% visible
METAR KIOB 141835Z AUTO 13012KT 10SM BKN046 OVC060 M07/M11 A3026 RMK AO2
Pressure 30.26 in
Visibility 10.0 miles
Clouds Mostly Cloudy 4600 ft
Overcast 6000 ft
Windchill 22 °F
Dew Point 11 °F
Humidity 62%
Rainfall 0.00 in
Snow Depth Not available.
7:27 AM 6:12 PM
Waxing Crescent, 44% visible
METAR KIOB 141835Z AUTO 13012KT 10SM BKN046 OVC060 M07/M11 A3026 RMK AO2

10-Day Weather Forecast

Almanac

Astronomy

Feb. 14, 2016 Rise Set
Actual Time
Civil Twilight
Nautical Twilight
Astronomical Twilight
Moon
Length of Visible Light
Length of Day
Tomorrow will be .
, % of the Moon is Illuminated

Today's Extremes

State Highs State Lows

Community

WunderPhotos

Upload Photos

1,892,874 photos uploaded!

WunderBlog® & News

Nearby

Air Quality

  Air Quality AQ Index Pollutant
Not available.

Snow Depth

Station Depth Elevation

Earthquake Activity

City Distance Mag. Time & Date
Minimum magnitude displayed is 2.5.

Coastal Water Temperatures

Place Temperature

Stations

Nearby Weather Stations

Station Location Temp. Windchill Dew Point Humidity Wind Precip. Elev Updated Type
                   

Watches & Warnings

Winter Weather Advisory
Issued: 4:33 AM EST Feb. 14, 2016 – National Weather Service

... Winter Weather Advisory remains in effect from 1 PM this
afternoon to 10 am EST Monday...

* timing... snow will move into the advisory area by 1pm Sunday.
Snow will then become more widespread Sunday evening and through
Sunday night... before transitioning to rain by mid morning
Monday.

* Snow accumulations... generally 3 to 4 inches of total snowfall
are expected from Sunday afternoon through mid morning Monday.

* Impacts... travel conditions will be affected as roads become
snow covered and slippery. This will likely affect the Monday
morning commute. Further more... visibilities may be reduced in
any of the heavier bands of snow.

Precautionary/preparedness actions...

A Winter Weather Advisory for snow means that periods of snow
will cause primarily travel difficulties. Be prepared for snow
covered roads and limited visibilities... and use caution while
driving.



Dj/Guseman